Time;durP1;ratioP1;P1;durP2;ratioP2;P2;SDS_P1;SDS_P2;PMS_P1;PMS_P2;Temp;Humidity;BMP_temperature;BMP_pressure;BME280_temperature;BME280_humidity;BME280_pressure;Samples;Min_cycle;Max_cycle;Signal;HPM_P1;HPM_P2
2023/01/22 00:00:28;;;;;;;13.13;9.30;;;0.70;80.10;;;;;;5034785;28;20052;-78
2023/01/22 00:02:54;;;;;;;13.60;8.37;;;1.10;80.40;;;;;;5051458;28;20098;-78
2023/01/22 00:05:20;;;;;;;12.63;9.17;;;0.60;80.10;;;;;;5018244;28;20045;-78
2023/01/22 00:07:47;;;;;;;11.87;8.33;;;0.60;80.10;;;;;;5034769;28;20049;-79
2023/01/22 00:10:13;;;;;;;12.70;8.50;;;0.60;80.00;;;;;;5018325;28;20492;-79
2023/01/22 00:12:39;;;;;;;13.07;8.43;;;0.60;80.00;;;;;;5051560;28;20048;-79
2023/01/22 00:15:05;;;;;;;11.57;8.20;;;0.60;80.00;;;;;;5034267;28;20045;-79
2023/01/22 00:17:31;;;;;;;12.97;9.20;;;0.60;80.00;;;;;;5034481;28;20044;-79
2023/01/22 00:19:57;;;;;;;12.93;8.43;;;0.60;79.90;;;;;;5035119;28;20037;-79
2023/01/22 00:22:22;;;;;;;12.17;8.23;;;0.60;80.30;;;;;;5034290;28;20492;-78
2023/01/22 00:24:48;;;;;;;11.43;8.07;;;0.60;79.90;;;;;;5021312;28;20044;-79
2023/01/22 00:27:14;;;;;;;13.40;8.87;;;0.60;79.90;;;;;;5018114;28;20040;-79
2023/01/22 00:29:40;;;;;;;12.57;8.30;;;0.60;79.90;;;;;;5035052;28;20362;-79
2023/01/22 00:32:05;;;;;;;13.17;9.00;;;0.60;79.90;;;;;;5051462;28;20091;-78
2023/01/22 00:34:31;;;;;;;10.93;7.80;;;0.60;79.80;;;;;;5044161;28;20088;-78
2023/01/22 00:36:57;;;;;;;12.77;7.80;;;0.60;79.70;;;;;;5037655;28;20094;-79
2023/01/22 00:39:23;;;;;;;26.07;12.93;;;0.50;79.60;;;;;;5054854;28;20388;-79
2023/01/22 00:41:49;;;;;;;30.13;17.27;;;0.50;79.50;;;;;;5037681;28;20033;-80
2023/01/22 00:44:15;;;;;;;14.83;9.40;;;0.50;79.40;;;;;;5021704;28;20045;-79
2023/01/22 00:46:40;;;;;;;15.77;10.43;;;0.50;79.40;;;;;;5037768;28;20083;-78
2023/01/22 00:49:06;;;;;;;16.40;9.97;;;0.50;79.50;;;;;;5054779;28;20049;-79
2023/01/22 00:51:32;;;;;;;13.93;9.70;;;0.50;79.50;;;;;;5021300;28;20041;-79
2023/01/22 00:53:58;;;;;;;13.43;8.73;;;0.40;79.50;;;;;;5017855;28;20037;-79
2023/01/22 00:56:24;;;;;;;16.03;9.60;;;0.50;79.60;;;;;;5044429;28;20084;-79
2023/01/22 00:58:49;;;;;;;14.43;9.47;;;0.50;79.70;;;;;;5021191;28;20396;-79
2023/01/22 01:01:16;;;;;;;14.03;8.70;;;0.50;79.70;;;;;;5054449;28;20128;-78
2023/01/22 01:03:42;;;;;;;13.17;8.73;;;0.50;79.80;;;;;;5055075;28;20052;-79
2023/01/22 01:06:19;;;;;;;20.63;14.37;;;0.40;79.70;;;;;;5057642;28;20388;-79
2023/01/22 01:08:46;;;;;;;17.07;11.10;;;0.50;79.80;;;;;;5040852;28;20131;-79
2023/01/22 01:11:15;;;;;;;15.83;9.77;;;0.70;79.90;;;;;;5074088;28;20044;-79
2023/01/22 01:13:42;;;;;;;14.13;9.83;;;0.40;79.60;;;;;;5072344;28;20124;-79
2023/01/22 01:16:12;;;;;;;13.23;9.07;;;0.40;79.60;;;;;;5029863;28;20490;-79
2023/01/22 01:18:37;;;;;;;12.83;9.07;;;0.40;79.60;;;;;;5054118;28;20476;-79
2023/01/22 01:21:06;;;;;;;17.77;10.10;;;0.40;79.60;;;;;;5037598;28;20044;-79
2023/01/22 01:23:32;;;;;;;15.33;9.20;;;0.40;79.60;;;;;;5036736;28;20063;-79
2023/01/22 01:25:58;;;;;;;11.50;7.97;;;0.90;79.90;;;;;;5053750;28;20045;-78
2023/01/22 01:28:24;;;;;;;13.47;8.40;;;0.40;79.70;;;;;;5037168;28;20044;-78
2023/01/22 01:30:50;;;;;;;12.87;8.30;;;0.30;79.60;;;;;;5037219;28;20370;-78
2023/01/22 01:33:16;;;;;;;12.90;8.90;;;0.30;79.60;;;;;;5036978;28;20052;-78
2023/01/22 01:35:42;;;;;;;12.67;7.97;;;0.30;79.70;;;;;;5036824;28;20536;-79
2023/01/22 01:38:08;;;;;;;13.70;8.50;;;0.50;79.90;;;;;;5053392;28;20041;-78
2023/01/22 01:40:34;;;;;;;10.70;7.47;;;0.30;79.70;;;;;;5036801;28;20033;-78
2023/01/22 01:43:00;;;;;;;11.83;8.20;;;0.30;79.70;;;;;;5053652;28;20087;-78
2023/01/22 01:45:28;;;;;;;12.40;8.43;;;0.30;79.80;;;;;;5053135;28;20095;-78
2023/01/22 01:48:11;;;;;;;12.47;8.50;;;0.30;79.80;;;;;;5052991;28;20052;-78
2023/01/22 01:50:41;;;;;;;12.73;8.57;;;0.30;79.80;;;;;;5050090;28;20392;-78
2023/01/22 01:53:07;;;;;;;13.27;8.33;;;0.30;79.80;;;;;;5048257;28;20119;-78
2023/01/22 01:55:35;;;;;;;11.60;7.87;;;0.20;79.70;;;;;;5019172;28;20382;-78
2023/01/22 01:58:09;;;;;;;10.60;7.13;;;0.30;79.70;;;;;;5036641;28;20384;-78
2023/01/22 02:00:36;;;;;;;12.73;8.27;;;0.20;79.70;;;;;;5053174;28;20365;-78
2023/01/22 02:03:03;;;;;;;13.87;8.70;;;0.20;79.60;;;;;;5036223;28;20037;-78
2023/01/22 02:05:33;;;;;;;12.27;7.57;;;0.20;79.60;;;;;;5052981;28;20044;-78
2023/01/22 02:07:59;;;;;;;12.87;8.20;;;0.20;79.50;;;;;;5036497;28;20452;-79
2023/01/22 02:10:26;;;;;;;14.33;8.40;;;0.20;79.50;;;;;;5052895;28;20083;-78
2023/01/22 02:12:55;;;;;;;15.03;9.13;;;0.10;79.80;;;;;;5036104;28;20045;-78
2023/01/22 02:15:21;;;;;;;14.37;9.23;;;0.10;79.40;;;;;;5036259;28;20115;-78
2023/01/22 02:17:47;;;;;;;18.23;9.67;;;0.10;79.40;;;;;;5036207;28;20544;-78
2023/01/22 02:20:13;;;;;;;13.87;8.70;;;0.10;79.50;;;;;;5016605;28;20061;-78
2023/01/22 02:22:39;;;;;;;14.40;8.47;;;0.00;79.50;;;;;;5061775;28;20132;-78
2023/01/22 02:25:06;;;;;;;12.10;7.57;;;0.00;79.70;;;;;;5035811;28;20502;-78
2023/01/22 02:27:32;;;;;;;12.10;7.47;;;0.00;79.80;;;;;;5019397;28;20479;-78
2023/01/22 02:29:58;;;;;;;11.90;7.83;;;0.00;79.90;;;;;;5016048;28;20045;-78
2023/01/22 02:32:23;;;;;;;10.90;7.43;;;0.00;80.00;;;;;;5049294;28;20091;-78
2023/01/22 02:34:49;;;;;;;14.77;9.07;;;0.00;80.10;;;;;;5048607;28;20119;-78
2023/01/22 02:37:15;;;;;;;14.37;8.80;;;0.00;80.10;;;;;;5035904;28;20500;-78
2023/01/22 02:39:41;;;;;;;13.63;8.47;;;0.00;80.20;;;;;;5035998;28;20127;-78
2023/01/22 02:42:07;;;;;;;13.67;9.20;;;0.00;80.20;;;;;;5035938;28;20028;-78
2023/01/22 02:44:33;;;;;;;12.90;8.60;;;0.00;80.30;;;;;;5035554;28;20098;-78
2023/01/22 02:46:59;;;;;;;15.13;8.60;;;0.00;80.30;;;;;;5018718;28;20041;-78
2023/01/22 02:49:25;;;;;;;13.40;8.53;;;0.00;80.40;;;;;;5019318;28;20546;-78
2023/01/22 02:51:51;;;;;;;13.67;8.27;;;0.00;80.40;;;;;;5035796;28;20178;-77
2023/01/22 02:54:16;;;;;;;14.67;9.30;;;0.00;80.40;;;;;;5035568;28;20055;-78
2023/01/22 02:56:42;;;;;;;14.53;8.77;;;0.00;80.40;;;;;;5035242;28;20370;-77
2023/01/22 02:59:08;;;;;;;13.17;8.40;;;0.00;80.40;;;;;;5035811;28;20035;-78
2023/01/22 03:01:34;;;;;;;17.93;9.83;;;0.00;80.40;;;;;;5051658;28;20041;-78
2023/01/22 03:04:11;;;;;;;14.10;8.57;;;0.00;80.40;;;;;;5034824;28;20068;-78
2023/01/22 03:06:46;;;;;;;12.37;8.07;;;0.00;80.40;;;;;;5051440;28;20044;-78
2023/01/22 03:09:14;;;;;;;12.33;8.10;;;0.00;80.40;;;;;;5034766;28;20391;-78
2023/01/22 03:11:41;;;;;;;12.07;8.30;;;0.00;80.40;;;;;;5035358;28;20087;-78
2023/01/22 03:22:21;;;;;;;10.57;6.35;;;0.00;80.50;;;;;;5051551;28;20044;-77
2023/01/22 03:24:49;;;;;;;14.10;8.53;;;0.00;80.40;;;;;;5051701;28;20048;-77
2023/01/22 03:27:16;;;;;;;16.03;9.13;;;0.00;80.50;;;;;;5019149;28;20041;-78
2023/01/22 03:29:43;;;;;;;15.33;9.13;;;0.00;80.50;;;;;;5051608;28;20480;-77
2023/01/22 03:32:08;;;;;;;15.67;9.00;;;0.00;80.50;;;;;;5035019;28;20098;-78
2023/01/22 03:34:34;;;;;;;15.63;9.90;;;0.00;80.50;;;;;;5051238;28;20045;-77
2023/01/22 03:37:00;;;;;;;19.20;10.77;;;0.00;80.60;;;;;;5034828;28;20045;-78
2023/01/22 03:39:26;;;;;;;17.87;10.40;;;0.20;80.80;;;;;;5018744;28;20041;-78
2023/01/22 03:41:52;;;;;;;20.67;10.80;;;0.00;80.80;;;;;;5034897;28;20037;-78
2023/01/22 03:44:18;;;;;;;17.90;10.07;;;0.10;81.00;;;;;;5051799;28;20408;-77
2023/01/22 03:46:44;;;;;;;16.43;9.50;;;0.10;81.20;;;;;;5034821;28;20041;-77
2023/01/22 03:49:12;;;;;;;17.53;10.03;;;0.10;81.30;;;;;;5035290;28;20400;-78
2023/01/22 03:51:38;;;;;;;18.13;10.13;;;0.20;82.00;;;;;;5015202;28;20034;-78
2023/01/22 03:54:04;;;;;;;20.03;9.97;;;0.20;81.80;;;;;;5039933;28;20437;-79
2023/01/22 03:56:30;;;;;;;18.47;10.13;;;0.20;81.80;;;;;;5034953;28;20086;-79
2023/01/22 03:58:56;;;;;;;15.57;9.47;;;0.20;81.90;;;;;;5022200;28;20040;-79
2023/01/22 04:01:24;;;;;;;16.10;10.30;;;0.30;82.10;;;;;;5038759;28;20037;-79
2023/01/22 04:03:51;;;;;;;16.20;9.80;;;0.30;82.20;;;;;;5054986;28;20076;-78
2023/01/22 04:06:18;;;;;;;19.20;10.40;;;0.30;82.30;;;;;;5022348;28;20143;-78
2023/01/22 04:08:45;;;;;;;18.40;10.03;;;0.40;82.40;;;;;;5055201;28;20057;-78
2023/01/22 04:11:12;;;;;;;14.30;9.17;;;0.40;82.60;;;;;;5055173;28;20048;-79
2023/01/22 04:13:39;;;;;;;17.80;8.87;;;0.40;82.60;;;;;;5038378;28;20047;-78
2023/01/22 04:16:06;;;;;;;18.67;9.53;;;0.40;82.70;;;;;;5038276;28;20048;-77
2023/01/22 04:18:31;;;;;;;17.70;8.70;;;0.50;82.80;;;;;;5038498;28;20116;-78
2023/01/22 04:20:57;;;;;;;16.20;9.10;;;0.50;82.80;;;;;;5021901;28;20123;-78
2023/01/22 04:23:24;;;;;;;20.17;9.10;;;0.50;82.80;;;;;;5038390;28;20033;-79
2023/01/22 04:25:50;;;;;;;15.47;8.33;;;0.50;82.90;;;;;;5038002;28;20045;-78
2023/01/22 04:28:16;;;;;;;15.70;9.00;;;0.60;82.90;;;;;;5054922;28;20044;-78
2023/01/22 04:30:44;;;;;;;14.53;8.37;;;0.70;83.00;;;;;;5038202;28;20123;-79
2023/01/22 04:33:10;;;;;;;14.50;8.27;;;0.70;83.00;;;;;;5054870;28;20416;-78
2023/01/22 04:35:36;;;;;;;13.80;8.00;;;0.70;82.90;;;;;;5037898;28;20055;-78
2023/01/22 04:38:04;;;;;;;13.37;7.57;;;0.70;82.90;;;;;;5037914;28;20073;-79
2023/01/22 04:40:29;;;;;;;12.33;7.60;;;1.00;83.10;;;;;;5037800;28;20043;-78
2023/01/22 04:43:00;;;;;;;14.70;7.30;;;0.90;82.90;;;;;;5054598;28;20041;-78
2023/01/22 04:45:26;;;;;;;11.67;7.43;;;0.80;82.90;;;;;;5037860;28;20045;-78
2023/01/22 04:47:52;;;;;;;13.10;6.97;;;0.80;82.70;;;;;;5021255;28;20102;-78
2023/01/22 04:50:22;;;;;;;11.43;6.60;;;0.90;82.80;;;;;;5038016;28;20044;-78
2023/01/22 04:52:50;;;;;;;12.33;6.87;;;0.80;82.60;;;;;;5037428;28;20131;-78
2023/01/22 04:55:16;;;;;;;12.33;6.57;;;0.90;82.60;;;;;;5054493;28;20045;-78
2023/01/22 04:57:42;;;;;;;10.63;7.03;;;0.90;82.60;;;;;;5054377;28;20045;-78
2023/01/22 05:00:10;;;;;;;10.70;7.67;;;0.90;82.50;;;;;;5021270;28;20059;-78
2023/01/22 05:02:36;;;;;;;10.20;6.27;;;0.90;82.40;;;;;;5053937;28;20400;-78
2023/01/22 05:05:03;;;;;;;10.87;6.00;;;1.00;82.30;;;;;;5037416;28;20117;-78
2023/01/22 05:07:29;;;;;;;10.73;5.50;;;1.00;82.20;;;;;;5036992;28;20143;-78
2023/01/22 05:09:55;;;;;;;14.83;6.80;;;1.00;82.20;;;;;;5036428;28;20132;-78
2023/01/22 05:12:20;;;;;;;10.40;6.57;;;1.00;82.20;;;;;;5037157;28;20116;-78
2023/01/22 05:14:46;;;;;;;10.90;5.77;;;1.00;82.20;;;;;;5053531;28;20128;-78
2023/01/22 05:17:12;;;;;;;10.50;6.50;;;1.10;82.20;;;;;;5037240;28;20091;-79
2023/01/22 05:19:37;;;;;;;10.10;6.30;;;1.70;82.50;;;;;;5037212;28;20041;-78
2023/01/22 05:22:03;;;;;;;10.47;6.23;;;1.10;82.10;;;;;;5037480;28;20068;-78
2023/01/22 05:24:29;;;;;;;12.57;5.67;;;1.10;82.00;;;;;;5017207;28;20193;-78
2023/01/22 05:26:55;;;;;;;10.23;5.47;;;1.50;82.10;;;;;;5034102;28;20431;-78
2023/01/22 05:29:24;;;;;;;8.13;5.53;;;1.20;81.80;;;;;;5050361;28;20485;-78
2023/01/22 05:31:54;;;;;;;7.47;5.13;;;1.40;81.80;;;;;;5017293;28;20056;-79
2023/01/22 05:34:20;;;;;;;7.43;4.77;;;1.20;81.70;;;;;;5027460;28;20040;-78
2023/01/22 05:36:46;;;;;;;10.03;5.63;;;1.60;81.90;;;;;;5053632;28;20602;-79
2023/01/22 05:39:12;;;;;;;9.97;5.30;;;1.20;81.50;;;;;;5053279;28;20044;-78
2023/01/22 05:41:38;;;;;;;9.53;5.07;;;1.20;81.50;;;;;;5020234;28;20041;-78
2023/01/22 05:44:04;;;;;;;7.20;5.10;;;1.20;81.50;;;;;;5052692;28;20037;-78
2023/01/22 05:46:30;;;;;;;9.47;5.33;;;1.20;81.50;;;;;;5020176;28;20127;-78
2023/01/22 05:48:59;;;;;;;7.13;5.27;;;1.20;81.40;;;;;;5020275;28;20127;-78
2023/01/22 05:51:25;;;;;;;9.70;4.90;;;1.30;81.40;;;;;;5036684;28;20517;-79
2023/01/22 05:53:51;;;;;;;10.87;5.27;;;1.30;81.40;;;;;;5052631;28;20041;-78
2023/01/22 05:56:17;;;;;;;8.47;4.90;;;1.30;81.30;;;;;;5036187;28;20376;-78
2023/01/22 05:58:42;;;;;;;6.37;4.70;;;1.60;81.40;;;;;;5020074;28;20068;-79
2023/01/22 06:01:08;;;;;;;9.80;5.73;;;1.30;81.20;;;;;;5036106;28;20041;-78
2023/01/22 06:03:34;;;;;;;7.87;5.40;;;1.30;81.10;;;;;;5035907;28;20039;-78
2023/01/22 06:06:02;;;;;;;9.07;5.37;;;1.30;80.80;;;;;;5036288;28;20124;-78
2023/01/22 06:08:28;;;;;;;8.47;5.23;;;1.40;80.80;;;;;;5036495;28;20462;-78
2023/01/22 06:11:05;;;;;;;7.80;5.57;;;1.60;80.70;;;;;;5053051;28;20041;-78
2023/01/22 06:13:33;;;;;;;8.47;5.13;;;1.40;80.30;;;;;;5036282;28;20443;-78
2023/01/22 06:15:59;;;;;;;8.50;5.67;;;1.40;80.00;;;;;;5019452;28;20087;-78
2023/01/22 06:18:25;;;;;;;9.40;5.03;;;1.40;80.00;;;;;;5020055;28;20121;-78
2023/01/22 06:20:51;;;;;;;9.73;5.10;;;1.40;79.80;;;;;;5035003;28;20072;-78
2023/01/22 06:23:17;;;;;;;9.83;5.40;;;1.40;79.50;;;;;;5052895;28;20060;-78
2023/01/22 06:25:43;;;;;;;11.27;5.83;;;1.40;79.30;;;;;;5035801;28;20480;-78
2023/01/22 06:28:09;;;;;;;9.57;5.03;;;1.70;79.50;;;;;;5036229;28;20059;-78
2023/01/22 06:30:36;;;;;;;8.37;5.47;;;1.40;79.40;;;;;;5019931;28;20044;-78
2023/01/22 06:33:02;;;;;;;9.70;6.07;;;1.40;79.40;;;;;;5052827;28;20090;-78
2023/01/22 06:35:28;;;;;;;10.03;5.37;;;1.40;79.50;;;;;;5019344;28;20049;-78
2023/01/22 06:37:54;;;;;;;7.80;5.77;;;1.40;79.50;;;;;;5052520;28;20064;-78
2023/01/22 06:40:19;;;;;;;8.50;5.53;;;1.40;79.50;;;;;;5035879;28;20043;-78
2023/01/22 06:42:45;;;;;;;9.07;5.53;;;1.50;79.60;;;;;;5019330;28;20121;-78
2023/01/22 06:45:11;;;;;;;8.27;5.00;;;1.40;79.60;;;;;;5035614;28;20060;-78
2023/01/22 06:47:36;;;;;;;8.30;5.20;;;1.40;79.70;;;;;;5035751;28;20036;-79
2023/01/22 06:50:03;;;;;;;8.13;6.50;;;1.40;79.70;;;;;;5019251;28;20041;-79
2023/01/22 06:52:28;;;;;;;7.20;5.50;;;1.40;79.70;;;;;;5052219;28;20041;-79
2023/01/22 06:54:55;;;;;;;8.93;5.10;;;1.40;79.80;;;;;;5035969;28;20047;-79
2023/01/22 06:57:20;;;;;;;8.47;5.37;;;1.40;79.80;;;;;;5035740;28;20439;-79
2023/01/22 06:59:46;;;;;;;9.70;5.60;;;1.40;79.90;;;;;;5035667;28;20044;-78
2023/01/22 07:02:16;;;;;;;9.17;5.33;;;1.40;79.90;;;;;;5018878;28;20494;-79
2023/01/22 07:04:42;;;;;;;8.83;5.77;;;1.50;80.00;;;;;;5035666;28;20388;-78
2023/01/22 07:07:08;;;;;;;9.97;5.43;;;1.40;79.90;;;;;;5051878;28;20061;-78
2023/01/22 07:09:33;;;;;;;8.67;6.03;;;1.40;80.00;;;;;;5018983;28;20439;-78
2023/01/22 07:11:59;;;;;;;8.23;5.53;;;1.40;80.10;;;;;;5052223;28;20041;-78
2023/01/22 07:14:25;;;;;;;10.33;5.77;;;1.40;80.10;;;;;;5052185;28;20094;-78
2023/01/22 07:16:51;;;;;;;7.93;5.90;;;1.40;80.00;;;;;;5035021;28;20037;-78
2023/01/22 07:19:17;;;;;;;9.20;5.50;;;1.40;79.90;;;;;;5051755;28;20037;-78
2023/01/22 07:21:42;;;;;;;9.13;6.10;;;1.40;79.80;;;;;;5035141;28;20282;-78
2023/01/22 07:24:09;;;;;;;7.80;5.40;;;1.40;79.80;;;;;;5034932;28;20116;-79
2023/01/22 07:26:35;;;;;;;7.17;4.93;;;1.40;79.80;;;;;;5015333;28;20041;-78
2023/01/22 07:29:01;;;;;;;10.67;6.50;;;1.40;79.80;;;;;;5048447;28;20044;-78
2023/01/22 07:31:27;;;;;;;9.77;6.10;;;1.70;80.00;;;;;;5048549;28;20080;-78
2023/01/22 07:33:53;;;;;;;8.63;5.87;;;1.40;79.80;;;;;;5055604;28;20075;-79
2023/01/22 07:36:19;;;;;;;9.13;6.07;;;1.50;79.90;;;;;;5039218;28;20068;-78
2023/01/22 07:38:44;;;;;;;10.57;6.43;;;1.40;79.80;;;;;;5039210;28;20036;-78
2023/01/22 07:41:10;;;;;;;10.97;6.57;;;1.40;79.70;;;;;;5055747;28;20040;-78
2023/01/22 07:43:36;;;;;;;11.20;6.23;;;1.40;79.60;;;;;;5038996;28;20404;-78
2023/01/22 07:46:03;;;;;;;9.17;6.00;;;1.50;79.60;;;;;;5022590;28;20407;-78
2023/01/22 07:48:29;;;;;;;9.73;6.20;;;1.40;79.60;;;;;;5055422;28;20047;-78
2023/01/22 07:51:00;;;;;;;7.73;5.67;;;1.40;79.70;;;;;;5055957;28;20482;-78
2023/01/22 07:53:26;;;;;;;9.47;6.07;;;1.40;79.80;;;;;;5055502;28;20041;-78
2023/01/22 07:55:52;;;;;;;12.33;6.70;;;1.40;79.70;;;;;;5022553;28;20051;-78
2023/01/22 07:58:19;;;;;;;12.50;7.03;;;1.40;79.70;;;;;;5055645;28;20044;-79
2023/01/22 08:00:44;;;;;;;9.63;5.90;;;1.40;79.70;;;;;;5039017;28;20377;-78
2023/01/22 08:03:12;;;;;;;10.10;6.30;;;1.40;79.60;;;;;;5038369;28;20081;-79
2023/01/22 08:05:39;;;;;;;10.53;6.77;;;1.40;79.50;;;;;;5022599;28;20047;-79
2023/01/22 08:08:10;;;;;;;9.77;6.13;;;1.40;79.50;;;;;;5055210;28;20057;-79
2023/01/22 08:10:37;;;;;;;11.73;6.50;;;1.40;79.60;;;;;;5055236;28;20045;-79
2023/01/22 08:13:03;;;;;;;8.93;6.60;;;1.40;79.60;;;;;;5055150;28;20527;-79
2023/01/22 08:15:30;;;;;;;9.93;5.80;;;1.70;79.70;;;;;;5054711;28;20037;-78
2023/01/22 08:17:55;;;;;;;10.13;6.87;;;1.40;79.60;;;;;;5054945;28;20072;-78
2023/01/22 08:20:21;;;;;;;14.03;6.00;;;1.40;79.50;;;;;;5038253;28;20081;-78
2023/01/22 08:22:47;;;;;;;8.70;6.23;;;1.50;79.60;;;;;;5054565;28;20052;-76
2023/01/22 08:25:13;;;;;;;9.07;5.87;;;1.30;79.50;;;;;;5037791;28;20040;-77
2023/01/22 08:27:39;;;;;;;11.37;6.17;;;1.30;79.50;;;;;;5038176;28;20149;-78
2023/01/22 08:30:06;;;;;;;8.53;6.03;;;1.30;79.40;;;;;;5054381;28;20037;-78
2023/01/22 08:32:32;;;;;;;8.67;6.20;;;1.30;79.40;;;;;;5038073;28;20106;-77
2023/01/22 08:34:58;;;;;;;8.63;6.40;;;1.40;79.40;;;;;;5054168;28;20501;-78
2023/01/22 08:37:24;;;;;;;12.57;6.60;;;1.30;79.20;;;;;;5054082;28;20037;-78
2023/01/22 08:39:49;;;;;;;11.47;7.13;;;1.30;79.20;;;;;;5019240;28;20045;-78
2023/01/22 08:42:15;;;;;;;13.00;7.23;;;1.30;79.20;;;;;;5034374;28;20029;-77
2023/01/22 08:44:41;;;;;;;10.10;6.73;;;1.30;79.30;;;;;;5053265;28;20128;-77
2023/01/22 08:47:09;;;;;;;11.07;6.43;;;1.20;79.20;;;;;;5054407;28;20132;-77
2023/01/22 08:49:35;;;;;;;9.90;6.63;;;1.30;79.40;;;;;;5038280;28;20179;-78
2023/01/22 08:52:00;;;;;;;10.20;6.63;;;1.20;79.40;;;;;;5021056;28;20494;-77
2023/01/22 08:54:26;;;;;;;8.93;7.13;;;1.30;79.60;;;;;;5017596;28;20068;-78
2023/01/22 08:56:52;;;;;;;8.43;6.37;;;1.20;79.60;;;;;;5044694;28;20079;-77
2023/01/22 08:59:17;;;;;;;10.47;6.80;;;1.30;79.70;;;;;;5020990;28;20088;-77
2023/01/22 09:01:43;;;;;;;9.80;6.37;;;1.30;79.70;;;;;;5053795;28;20037;-77
2023/01/22 09:04:10;;;;;;;8.67;5.73;;;1.30;79.70;;;;;;5048397;28;20033;-77
2023/01/22 09:06:37;;;;;;;10.23;7.30;;;1.30;79.80;;;;;;5036720;28;20067;-77
2023/01/22 09:09:04;;;;;;;10.43;7.40;;;1.30;79.80;;;;;;5053684;28;20099;-77
2023/01/22 09:11:31;;;;;;;12.30;7.13;;;1.30;79.90;;;;;;5037220;28;20072;-77
2023/01/22 09:13:58;;;;;;;10.70;7.00;;;1.30;79.90;;;;;;5053314;28;20424;-74
2023/01/22 09:16:25;;;;;;;10.83;6.70;;;1.40;79.80;;;;;;5053074;28;20048;-77
2023/01/22 09:18:51;;;;;;;10.23;6.57;;;1.40;79.70;;;;;;5038401;28;20432;-77
2023/01/22 09:21:17;;;;;;;10.47;6.73;;;1.40;79.70;;;;;;5046089;28;20379;-77
2023/01/22 09:23:43;;;;;;;10.70;7.27;;;1.40;79.90;;;;;;5045935;28;20037;-77
2023/01/22 09:26:09;;;;;;;9.80;6.83;;;1.50;80.00;;;;;;5063227;28;20048;-77
2023/01/22 09:28:35;;;;;;;9.63;7.00;;;1.60;80.00;;;;;;5064177;28;20059;-77
2023/01/22 09:31:00;;;;;;;13.67;7.60;;;1.40;79.90;;;;;;5047331;28;20072;-77
2023/01/22 09:33:26;;;;;;;11.70;7.60;;;1.40;80.00;;;;;;5047947;28;20368;-77
2023/01/22 09:35:52;;;;;;;8.87;6.93;;;1.40;80.00;;;;;;5065646;28;20052;-77
2023/01/22 09:38:18;;;;;;;9.20;6.80;;;1.50;80.20;;;;;;5065921;28;20039;-77
2023/01/22 09:40:49;;;;;;;13.43;8.10;;;1.50;80.20;;;;;;5030613;28;20136;-77
2023/01/22 09:43:33;;;;;;;9.73;7.30;;;1.50;80.20;;;;;;5045493;28;20043;-77
2023/01/22 09:46:08;;;;;;;10.45;6.65;;;1.50;80.20;;;;;;5064267;28;20032;-78
2023/01/22 09:48:39;;;;;;;10.27;7.03;;;1.60;80.20;;;;;;5048456;28;20032;-78
2023/01/22 09:51:05;;;;;;;11.30;7.77;;;1.50;80.10;;;;;;5063236;28;20052;-77
2023/01/22 09:53:32;;;;;;;12.40;7.53;;;1.60;80.10;;;;;;5045928;28;20044;-77
2023/01/22 09:55:59;;;;;;;9.80;6.83;;;1.60;80.10;;;;;;5020346;28;20040;-78
2023/01/22 09:58:25;;;;;;;9.33;7.23;;;1.60;80.10;;;;;;5064090;28;20036;-76
2023/01/22 10:00:58;;;;;;;12.57;7.30;;;1.60;80.20;;;;;;5047000;28;20935;-76
2023/01/22 10:03:55;;;;;;;11.27;8.50;;;1.80;80.40;;;;;;5047273;28;20043;-78
2023/01/22 10:06:23;;;;;;;12.60;8.07;;;1.70;80.30;;;;;;5054695;28;20041;-79
2023/01/22 10:09:15;;;;;;;13.27;8.20;;;1.70;80.40;;;;;;5044839;28;20487;-78
2023/01/22 10:11:45;;;;;;;9.23;6.90;;;1.70;80.30;;;;;;5048591;28;20048;-79
2023/01/22 10:14:14;;;;;;;9.80;6.93;;;1.70;80.20;;;;;;5063552;28;20089;-79
2023/01/22 10:16:40;;;;;;;11.23;7.13;;;1.80;80.30;;;;;;5063813;28;20579;-79
2023/01/22 10:19:18;;;;;;;9.87;6.87;;;2.00;80.40;;;;;;5032466;28;20127;-79
2023/01/22 10:22:15;;;;;;;8.77;6.43;;;1.80;80.30;;;;;;5047513;28;20111;-79
2023/01/22 10:24:41;;;;;;;9.67;6.60;;;2.10;80.40;;;;;;5059918;28;20053;-79
2023/01/22 10:27:15;;;;;;;9.23;6.63;;;1.90;80.30;;;;;;5025521;28;20056;-77
2023/01/22 10:29:57;;;;;;;11.98;7.18;;;2.20;80.40;;;;;;5062038;28;20047;-77
2023/01/22 10:32:28;;;;;;;9.47;5.97;;;1.90;80.10;;;;;;5063775;28;20044;-79
2023/01/22 10:35:09;;;;;;;7.63;6.03;;;1.90;80.10;;;;;;5061601;28;20063;-77
2023/01/22 10:37:46;;;;;;;9.73;6.23;;;1.90;79.90;;;;;;5055297;28;20171;-77
2023/01/22 10:40:31;;;;;;;12.17;7.13;;;1.90;79.90;;;;;;5036093;28;20149;-78
2023/01/22 10:43:13;;;;;;;8.97;6.03;;;2.00;79.90;;;;;;5052261;28;20052;-78
2023/01/22 10:45:53;;;;;;;6.47;5.20;;;2.00;80.40;;;;;;5035635;28;20036;-79
2023/01/22 10:48:20;;;;;;;11.43;5.50;;;2.00;80.00;;;;;;5035362;28;20094;-78
2023/01/22 10:50:57;;;;;;;14.20;7.73;;;2.00;79.80;;;;;;5003079;28;20102;-78
2023/01/22 10:53:32;;;;;;;11.97;6.63;;;2.10;79.90;;;;;;5035384;28;20171;-78
2023/01/22 10:56:00;;;;;;;8.43;6.40;;;2.10;80.00;;;;;;5051312;28;20041;-75
2023/01/22 10:58:35;;;;;;;9.53;6.37;;;2.10;80.00;;;;;;5034913;28;20037;-79
2023/01/22 11:01:05;;;;;;;9.40;6.50;;;2.10;80.00;;;;;;5051692;28;20545;-80
2023/01/22 11:03:38;;;;;;;9.57;6.37;;;2.20;79.90;;;;;;5051370;28;20036;-81
2023/01/22 11:06:19;;;;;;;9.10;6.23;;;2.20;79.70;;;;;;5051298;28;20045;-79
2023/01/22 11:08:55;;;;;;;8.17;6.10;;;2.20;79.60;;;;;;5034465;28;20064;-79
2023/01/22 11:11:35;;;;;;;8.10;5.67;;;2.20;79.70;;;;;;5050757;28;20067;-80
2023/01/22 11:14:10;;;;;;;7.53;5.30;;;2.20;79.70;;;;;;5050560;28;20045;-78
2023/01/22 11:16:39;;;;;;;9.87;6.03;;;2.20;79.80;;;;;;5033922;28;20048;-78
2023/01/22 11:19:13;;;;;;;10.90;6.60;;;2.30;79.70;;;;;;5035034;28;20658;-77
2023/01/22 11:21:49;;;;;;;7.90;5.93;;;2.40;79.80;;;;;;5034939;28;20033;-78
2023/01/22 11:24:24;;;;;;;9.27;5.87;;;2.40;79.90;;;;;;5034999;28;20037;-78
2023/01/22 11:27:23;;;;;;;11.27;6.27;;;2.40;79.80;;;;;;5051228;28;20037;-78
2023/01/22 11:29:57;;;;;;;9.02;6.22;;;2.40;79.50;;;;;;5034162;28;20041;-78
2023/01/22 11:32:41;;;;;;;7.63;5.53;;;2.40;79.40;;;;;;5034821;28;20095;-78
2023/01/22 11:35:35;;;;;;;11.13;5.97;;;2.40;79.10;;;;;;5034589;28;20051;-78
2023/01/22 11:38:32;;;;;;;9.83;7.30;;;2.40;78.90;;;;;;5035190;28;20091;-79
2023/01/22 11:41:22;;;;;;;7.77;5.60;;;2.40;79.10;;;;;;5034072;28;20042;-78
2023/01/22 11:44:02;;;;;;;8.10;6.40;;;2.40;79.10;;;;;;5043438;28;20124;-79
2023/01/22 11:46:54;;;;;;;10.07;6.60;;;2.40;79.20;;;;;;5048385;28;20444;-80
2023/01/22 11:49:49;;;;;;;9.48;6.28;;;2.50;79.20;;;;;;5049267;28;20123;-80
2023/01/22 11:52:32;;;;;;;10.23;6.10;;;2.50;79.20;;;;;;5034398;28;20132;-79
2023/01/22 11:55:21;;;;;;;8.63;6.27;;;2.50;79.30;;;;;;5034859;28;20045;-80
2023/01/22 11:57:53;;;;;;;10.50;6.90;;;2.50;79.20;;;;;;5034833;28;20164;-80
2023/01/22 12:00:46;;;;;;;10.20;6.97;;;2.50;79.20;;;;;;5034463;28;20037;-79
2023/01/22 12:03:48;;;;;;;8.80;6.72;;;2.50;79.30;;;;;;5034459;28;20052;-79
2023/01/22 12:06:20;;;;;;;10.65;6.80;;;2.50;79.30;;;;;;5034668;28;20480;-78
2023/01/22 12:08:57;;;;;;;11.47;6.93;;;2.50;79.40;;;;;;5034500;28;20044;-79
2023/01/22 12:11:43;;;;;;;11.18;6.63;;;2.60;79.40;;;;;;5051077;28;20056;-78
2023/01/22 12:14:30;;;;;;;10.30;7.05;;;2.60;79.40;;;;;;5050962;28;20500;-79
2023/01/22 12:17:17;;;;;;;11.38;7.13;;;2.60;79.50;;;;;;5034669;28;20066;-80
2023/01/22 12:20:13;;;;;;;10.13;7.13;;;2.60;79.40;;;;;;5038018;28;20101;-79
2023/01/22 12:22:52;;;;;;;9.98;6.20;;;2.60;79.40;;;;;;5055010;28;20102;-79
2023/01/22 12:25:43;;;;;;;11.60;6.75;;;2.60;79.30;;;;;;5055009;28;20551;-79
2023/01/22 12:28:39;;;;;;;10.18;7.22;;;2.60;79.20;;;;;;5038114;28;20091;-79
2023/01/22 12:31:09;;;;;;;;;;;2.80;79.40;;;;;;5038768;28;20377;-79
2023/01/22 12:33:39;;;;;;;10.98;6.45;;;2.60;79.20;;;;;;5038325;28;20421;-79
2023/01/22 12:36:08;;;;;;;11.98;7.15;;;2.70;79.60;;;;;;5037930;28;20041;-79
2023/01/22 12:38:43;;;;;;;12.73;7.10;;;2.70;79.50;;;;;;5054877;28;20052;-79
2023/01/22 12:41:09;;;;;;;11.90;7.43;;;2.70;79.50;;;;;;5054729;28;20041;-80
2023/01/22 12:43:51;;;;;;;10.63;7.07;;;2.80;79.40;;;;;;5038052;28;20041;-80
2023/01/22 12:46:34;;;;;;;10.57;7.03;;;2.80;79.60;;;;;;5054711;28;20408;-80
2023/01/22 12:49:15;;;;;;;11.75;7.88;;;2.80;79.40;;;;;;5038332;28;20127;-80
2023/01/22 12:51:46;;;;;;;10.23;7.13;;;2.80;79.40;;;;;;5037845;28;20488;-80
2023/01/22 12:54:19;;;;;;;12.45;6.85;;;3.00;79.50;;;;;;5054314;28;20048;-81
2023/01/22 12:56:45;;;;;;;10.10;7.75;;;2.80;79.40;;;;;;5054091;28;20088;-80
2023/01/22 12:59:42;;;;;;;9.75;6.30;;;2.90;79.30;;;;;;5054003;28;20043;-79
2023/01/22 13:02:40;;;;;;;10.30;6.70;;;2.90;79.30;;;;;;5039081;28;20431;-79
2023/01/22 13:05:20;;;;;;;10.90;6.78;;;2.90;79.20;;;;;;5029477;28;20056;-79
2023/01/22 13:07:46;;;;;;;9.23;6.55;;;2.90;79.40;;;;;;5053797;28;20064;-79
2023/01/22 13:10:18;;;;;;;9.73;6.47;;;3.00;79.80;;;;;;5053871;28;20041;-79